sensor_id;sensor_type;location;lat;lon;timestamp;P1;durP1;ratioP1;P2;durP2;ratioP2
22070;SDS011;11200;51.488;6.668;2023-09-18T00:00:49;5.25;;;4.80;;
22070;SDS011;11200;51.488;6.668;2023-09-18T00:03:18;5.18;;;4.68;;
22070;SDS011;11200;51.488;6.668;2023-09-18T00:05:48;4.82;;;4.43;;
22070;SDS011;11200;51.488;6.668;2023-09-18T00:08:15;5.72;;;4.75;;
22070;SDS011;11200;51.488;6.668;2023-09-18T00:10:41;4.82;;;4.40;;
22070;SDS011;11200;51.488;6.668;2023-09-18T00:13:07;5.10;;;4.60;;
22070;SDS011;11200;51.488;6.668;2023-09-18T00:15:33;5.20;;;4.78;;
22070;SDS011;11200;51.488;6.668;2023-09-18T00:17:59;4.88;;;4.47;;
22070;SDS011;11200;51.488;6.668;2023-09-18T00:20:24;4.85;;;4.45;;
22070;SDS011;11200;51.488;6.668;2023-09-18T00:22:55;5.68;;;4.50;;
22070;SDS011;11200;51.488;6.668;2023-09-18T00:25:24;4.47;;;4.07;;
22070;SDS011;11200;51.488;6.668;2023-09-18T00:27:49;5.10;;;4.60;;
22070;SDS011;11200;51.488;6.668;2023-09-18T00:30:16;4.82;;;4.43;;
22070;SDS011;11200;51.488;6.668;2023-09-18T00:32:42;4.75;;;4.35;;
22070;SDS011;11200;51.488;6.668;2023-09-18T00:35:08;4.60;;;4.20;;
22070;SDS011;11200;51.488;6.668;2023-09-18T00:37:33;4.88;;;4.35;;
22070;SDS011;11200;51.488;6.668;2023-09-18T00:40:01;4.93;;;4.25;;
22070;SDS011;11200;51.488;6.668;2023-09-18T00:42:27;4.90;;;4.30;;
22070;SDS011;11200;51.488;6.668;2023-09-18T00:44:52;5.13;;;4.72;;
22070;SDS011;11200;51.488;6.668;2023-09-18T00:47:18;5.05;;;4.63;;
22070;SDS011;11200;51.488;6.668;2023-09-18T00:49:45;4.65;;;4.25;;
22070;SDS011;11200;51.488;6.668;2023-09-18T00:52:14;4.90;;;4.10;;
22070;SDS011;11200;51.488;6.668;2023-09-18T00:54:40;5.05;;;4.47;;
22070;SDS011;11200;51.488;6.668;2023-09-18T00:57:08;4.60;;;4.20;;
22070;SDS011;11200;51.488;6.668;2023-09-18T00:59:35;4.65;;;4.25;;
22070;SDS011;11200;51.488;6.668;2023-09-18T01:02:01;5.03;;;4.60;;
22070;SDS011;11200;51.488;6.668;2023-09-18T01:04:28;4.88;;;4.38;;
22070;SDS011;11200;51.488;6.668;2023-09-18T01:06:55;4.88;;;4.47;;
22070;SDS011;11200;51.488;6.668;2023-09-18T01:09:23;4.80;;;4.40;;
22070;SDS011;11200;51.488;6.668;2023-09-18T01:16:56;4.70;;;4.30;;
22070;SDS011;11200;51.488;6.668;2023-09-18T01:22:06;4.88;;;4.38;;
22070;SDS011;11200;51.488;6.668;2023-09-18T01:24:33;4.82;;;4.25;;
22070;SDS011;11200;51.488;6.668;2023-09-18T01:26:59;4.43;;;4.03;;
22070;SDS011;11200;51.488;6.668;2023-09-18T01:29:25;4.85;;;4.45;;
22070;SDS011;11200;51.488;6.668;2023-09-18T01:31:51;4.32;;;3.97;;
22070;SDS011;11200;51.488;6.668;2023-09-18T01:34:28;4.40;;;4.10;;
22070;SDS011;11200;51.488;6.668;2023-09-18T01:36:58;5.07;;;4.63;;
22070;SDS011;11200;51.488;6.668;2023-09-18T01:39:25;4.68;;;4.22;;
22070;SDS011;11200;51.488;6.668;2023-09-18T01:41:56;4.68;;;4.28;;
22070;SDS011;11200;51.488;6.668;2023-09-18T01:44:26;4.57;;;4.18;;
22070;SDS011;11200;51.488;6.668;2023-09-18T01:46:52;4.82;;;4.43;;
22070;SDS011;11200;51.488;6.668;2023-09-18T01:49:32;6.32;;;4.55;;
22070;SDS011;11200;51.488;6.668;2023-09-18T01:51:59;4.80;;;4.40;;
22070;SDS011;11200;51.488;6.668;2023-09-18T01:54:25;4.93;;;4.43;;
22070;SDS011;11200;51.488;6.668;2023-09-18T01:56:52;6.00;;;4.30;;
22070;SDS011;11200;51.488;6.668;2023-09-18T01:59:21;4.50;;;4.03;;
22070;SDS011;11200;51.488;6.668;2023-09-18T02:01:48;4.50;;;4.10;;
22070;SDS011;11200;51.488;6.668;2023-09-18T02:04:14;4.40;;;4.00;;
22070;SDS011;11200;51.488;6.668;2023-09-18T02:06:40;4.50;;;4.10;;
22070;SDS011;11200;51.488;6.668;2023-09-18T02:09:06;4.70;;;4.30;;
22070;SDS011;11200;51.488;6.668;2023-09-18T02:11:38;4.50;;;4.10;;
22070;SDS011;11200;51.488;6.668;2023-09-18T02:14:05;4.80;;;4.28;;
22070;SDS011;11200;51.488;6.668;2023-09-18T02:16:34;4.57;;;4.18;;
22070;SDS011;11200;51.488;6.668;2023-09-18T02:19:01;5.30;;;4.53;;
22070;SDS011;11200;51.488;6.668;2023-09-18T02:21:27;5.70;;;4.22;;
22070;SDS011;11200;51.488;6.668;2023-09-18T02:23:53;4.43;;;4.03;;
22070;SDS011;11200;51.488;6.668;2023-09-18T02:26:20;4.35;;;3.95;;
22070;SDS011;11200;51.488;6.668;2023-09-18T02:28:46;4.63;;;4.22;;
22070;SDS011;11200;51.488;6.668;2023-09-18T02:31:12;4.45;;;4.05;;
22070;SDS011;11200;51.488;6.668;2023-09-18T02:33:38;4.85;;;4.10;;
22070;SDS011;11200;51.488;6.668;2023-09-18T02:36:04;4.50;;;4.10;;
22070;SDS011;11200;51.488;6.668;2023-09-18T02:38:30;4.50;;;4.07;;
22070;SDS011;11200;51.488;6.668;2023-09-18T02:40:56;4.57;;;4.18;;
22070;SDS011;11200;51.488;6.668;2023-09-18T02:43:22;4.88;;;4.47;;
22070;SDS011;11200;51.488;6.668;2023-09-18T02:45:48;4.38;;;3.97;;
22070;SDS011;11200;51.488;6.668;2023-09-18T02:48:15;4.40;;;4.00;;
22070;SDS011;11200;51.488;6.668;2023-09-18T02:50:41;5.03;;;4.30;;
22070;SDS011;11200;51.488;6.668;2023-09-18T02:53:07;4.45;;;4.05;;
22070;SDS011;11200;51.488;6.668;2023-09-18T02:55:41;4.82;;;4.32;;
22070;SDS011;11200;51.488;6.668;2023-09-18T02:58:08;4.55;;;4.15;;
22070;SDS011;11200;51.488;6.668;2023-09-18T03:00:35;4.60;;;4.20;;
22070;SDS011;11200;51.488;6.668;2023-09-18T03:03:08;4.68;;;4.18;;
22070;SDS011;11200;51.488;6.668;2023-09-18T03:05:34;4.43;;;4.03;;
22070;SDS011;11200;51.488;6.668;2023-09-18T03:07:59;4.45;;;4.15;;
22070;SDS011;11200;51.488;6.668;2023-09-18T03:10:25;4.60;;;4.20;;
22070;SDS011;11200;51.488;6.668;2023-09-18T03:12:50;4.20;;;3.80;;
22070;SDS011;11200;51.488;6.668;2023-09-18T03:15:16;5.00;;;4.35;;
22070;SDS011;11200;51.488;6.668;2023-09-18T03:17:42;5.20;;;4.70;;
22070;SDS011;11200;51.488;6.668;2023-09-18T03:20:07;5.03;;;4.50;;
22070;SDS011;11200;51.488;6.668;2023-09-18T03:22:35;4.47;;;4.07;;
22070;SDS011;11200;51.488;6.668;2023-09-18T03:25:00;5.32;;;4.15;;
22070;SDS011;11200;51.488;6.668;2023-09-18T03:27:27;4.85;;;4.20;;
22070;SDS011;11200;51.488;6.668;2023-09-18T03:30:03;4.82;;;4.28;;
22070;SDS011;11200;51.488;6.668;2023-09-18T03:32:29;4.82;;;4.32;;
22070;SDS011;11200;51.488;6.668;2023-09-18T03:34:55;4.95;;;4.20;;
22070;SDS011;11200;51.488;6.668;2023-09-18T03:37:20;4.50;;;4.10;;
22070;SDS011;11200;51.488;6.668;2023-09-18T03:39:46;5.40;;;4.55;;
22070;SDS011;11200;51.488;6.668;2023-09-18T03:42:12;5.63;;;4.40;;
22070;SDS011;11200;51.488;6.668;2023-09-18T03:44:37;4.72;;;4.22;;
22070;SDS011;11200;51.488;6.668;2023-09-18T03:47:03;5.00;;;4.50;;
22070;SDS011;11200;51.488;6.668;2023-09-18T03:49:29;4.60;;;4.20;;
22070;SDS011;11200;51.488;6.668;2023-09-18T03:51:54;4.38;;;3.97;;
22070;SDS011;11200;51.488;6.668;2023-09-18T03:54:20;5.32;;;3.92;;
22070;SDS011;11200;51.488;6.668;2023-09-18T03:56:45;6.82;;;4.57;;
22070;SDS011;11200;51.488;6.668;2023-09-18T03:59:14;4.55;;;4.13;;
22070;SDS011;11200;51.488;6.668;2023-09-18T04:01:40;6.85;;;4.45;;
22070;SDS011;11200;51.488;6.668;2023-09-18T04:04:08;5.00;;;4.50;;
22070;SDS011;11200;51.488;6.668;2023-09-18T04:07:16;5.07;;;4.57;;
22070;SDS011;11200;51.488;6.668;2023-09-18T04:09:22;6.70;;;4.47;;
22070;SDS011;11200;51.488;6.668;2023-09-18T04:11:53;5.68;;;4.60;;
22070;SDS011;11200;51.488;6.668;2023-09-18T04:14:20;4.70;;;4.20;;
22070;SDS011;11200;51.488;6.668;2023-09-18T04:16:48;6.68;;;4.43;;
22070;SDS011;11200;51.488;6.668;2023-09-18T04:19:14;5.07;;;4.60;;
22070;SDS011;11200;51.488;6.668;2023-09-18T04:21:39;5.00;;;4.18;;
22070;SDS011;11200;51.488;6.668;2023-09-18T04:24:05;6.65;;;4.82;;
22070;SDS011;11200;51.488;6.668;2023-09-18T04:26:31;5.70;;;4.72;;
22070;SDS011;11200;51.488;6.668;2023-09-18T04:28:58;6.45;;;4.55;;
22070;SDS011;11200;51.488;6.668;2023-09-18T04:31:25;5.85;;;4.53;;
22070;SDS011;11200;51.488;6.668;2023-09-18T04:33:50;5.00;;;4.50;;
22070;SDS011;11200;51.488;6.668;2023-09-18T04:36:16;5.93;;;4.63;;
22070;SDS011;11200;51.488;6.668;2023-09-18T04:38:41;5.55;;;4.80;;
22070;SDS011;11200;51.488;6.668;2023-09-18T04:41:10;5.07;;;4.40;;
22070;SDS011;11200;51.488;6.668;2023-09-18T04:43:36;6.32;;;4.82;;
22070;SDS011;11200;51.488;6.668;2023-09-18T04:46:03;5.15;;;4.65;;
22070;SDS011;11200;51.488;6.668;2023-09-18T04:48:30;6.97;;;4.47;;
22070;SDS011;11200;51.488;6.668;2023-09-18T04:50:56;6.40;;;4.53;;
22070;SDS011;11200;51.488;6.668;2023-09-18T04:53:22;4.93;;;4.43;;
22070;SDS011;11200;51.488;6.668;2023-09-18T04:55:48;5.65;;;4.70;;
22070;SDS011;11200;51.488;6.668;2023-09-18T04:58:18;5.82;;;4.10;;
22070;SDS011;11200;51.488;6.668;2023-09-18T05:00:44;7.40;;;4.68;;
22070;SDS011;11200;51.488;6.668;2023-09-18T05:03:11;4.75;;;4.32;;
22070;SDS011;11200;51.488;6.668;2023-09-18T05:05:37;6.55;;;4.60;;
22070;SDS011;11200;51.488;6.668;2023-09-18T05:08:05;6.20;;;4.47;;
22070;SDS011;11200;51.488;6.668;2023-09-18T05:10:35;4.88;;;4.20;;
22070;SDS011;11200;51.488;6.668;2023-09-18T05:13:01;5.38;;;4.22;;
22070;SDS011;11200;51.488;6.668;2023-09-18T05:15:28;6.72;;;4.38;;
22070;SDS011;11200;51.488;6.668;2023-09-18T05:17:54;5.20;;;4.15;;
22070;SDS011;11200;51.488;6.668;2023-09-18T05:20:22;5.50;;;4.20;;
22070;SDS011;11200;51.488;6.668;2023-09-18T05:22:53;4.70;;;4.13;;
22070;SDS011;11200;51.488;6.668;2023-09-18T05:25:19;5.07;;;4.43;;
22070;SDS011;11200;51.488;6.668;2023-09-18T05:27:50;7.15;;;4.18;;
22070;SDS011;11200;51.488;6.668;2023-09-18T05:30:24;5.80;;;4.65;;
22070;SDS011;11200;51.488;6.668;2023-09-18T05:32:55;4.60;;;3.80;;
22070;SDS011;11200;51.488;6.668;2023-09-18T05:35:21;6.57;;;4.10;;
22070;SDS011;11200;51.488;6.668;2023-09-18T05:37:48;6.82;;;4.10;;
22070;SDS011;11200;51.488;6.668;2023-09-18T05:40:14;5.80;;;4.15;;
22070;SDS011;11200;51.488;6.668;2023-09-18T05:42:41;5.32;;;4.40;;
22070;SDS011;11200;51.488;6.668;2023-09-18T05:45:11;5.85;;;4.15;;
22070;SDS011;11200;51.488;6.668;2023-09-18T05:47:37;5.35;;;4.30;;
22070;SDS011;11200;51.488;6.668;2023-09-18T05:50:04;4.68;;;3.50;;
22070;SDS011;11200;51.488;6.668;2023-09-18T05:52:34;6.55;;;4.25;;
22070;SDS011;11200;51.488;6.668;2023-09-18T05:55:00;4.93;;;4.10;;
22070;SDS011;11200;51.488;6.668;2023-09-18T05:57:27;6.15;;;4.05;;
22070;SDS011;11200;51.488;6.668;2023-09-18T05:59:53;5.45;;;3.90;;
22070;SDS011;11200;51.488;6.668;2023-09-18T06:02:22;4.00;;;3.70;;
22070;SDS011;11200;51.488;6.668;2023-09-18T06:04:49;6.88;;;4.07;;
22070;SDS011;11200;51.488;6.668;2023-09-18T06:07:21;6.28;;;4.10;;
22070;SDS011;11200;51.488;6.668;2023-09-18T06:09:48;5.65;;;4.20;;
22070;SDS011;11200;51.488;6.668;2023-09-18T06:12:13;4.85;;;4.00;;
22070;SDS011;11200;51.488;6.668;2023-09-18T06:14:39;5.35;;;4.55;;
22070;SDS011;11200;51.488;6.668;2023-09-18T06:17:05;4.95;;;4.03;;
22070;SDS011;11200;51.488;6.668;2023-09-18T06:19:31;4.90;;;4.03;;
22070;SDS011;11200;51.488;6.668;2023-09-18T06:21:58;5.78;;;4.03;;
22070;SDS011;11200;51.488;6.668;2023-09-18T06:24:23;5.18;;;3.75;;
22070;SDS011;11200;51.488;6.668;2023-09-18T06:26:49;4.68;;;3.75;;
22070;SDS011;11200;51.488;6.668;2023-09-18T06:29:16;4.60;;;3.67;;
22070;SDS011;11200;51.488;6.668;2023-09-18T06:31:41;4.22;;;3.63;;
22070;SDS011;11200;51.488;6.668;2023-09-18T06:34:07;7.20;;;3.83;;
22070;SDS011;11200;51.488;6.668;2023-09-18T06:36:33;3.95;;;3.00;;
22070;SDS011;11200;51.488;6.668;2023-09-18T06:38:58;3.97;;;3.55;;
22070;SDS011;11200;51.488;6.668;2023-09-18T06:41:27;4.47;;;3.78;;
22070;SDS011;11200;51.488;6.668;2023-09-18T06:43:53;4.80;;;3.53;;
22070;SDS011;11200;51.488;6.668;2023-09-18T06:46:18;4.53;;;3.22;;
22070;SDS011;11200;51.488;6.668;2023-09-18T06:48:44;3.97;;;3.45;;
22070;SDS011;11200;51.488;6.668;2023-09-18T06:51:14;4.60;;;3.10;;
22070;SDS011;11200;51.488;6.668;2023-09-18T06:53:40;6.07;;;3.80;;
22070;SDS011;11200;51.488;6.668;2023-09-18T06:56:06;4.75;;;3.42;;
22070;SDS011;11200;51.488;6.668;2023-09-18T06:58:31;4.28;;;3.10;;
22070;SDS011;11200;51.488;6.668;2023-09-18T07:00:57;4.10;;;3.40;;
22070;SDS011;11200;51.488;6.668;2023-09-18T07:03:23;5.72;;;3.25;;
22070;SDS011;11200;51.488;6.668;2023-09-18T07:05:48;6.20;;;3.38;;
22070;SDS011;11200;51.488;6.668;2023-09-18T07:08:14;4.28;;;3.00;;
22070;SDS011;11200;51.488;6.668;2023-09-18T07:10:44;5.82;;;3.03;;
22070;SDS011;11200;51.488;6.668;2023-09-18T07:13:10;4.55;;;2.97;;
22070;SDS011;11200;51.488;6.668;2023-09-18T07:15:36;4.97;;;3.35;;
22070;SDS011;11200;51.488;6.668;2023-09-18T07:18:02;5.47;;;3.20;;
22070;SDS011;11200;51.488;6.668;2023-09-18T07:20:28;3.72;;;2.90;;
22070;SDS011;11200;51.488;6.668;2023-09-18T07:22:54;3.13;;;2.83;;
22070;SDS011;11200;51.488;6.668;2023-09-18T07:25:21;4.63;;;2.85;;
22070;SDS011;11200;51.488;6.668;2023-09-18T07:27:46;5.53;;;2.83;;
22070;SDS011;11200;51.488;6.668;2023-09-18T07:30:13;4.57;;;2.90;;
22070;SDS011;11200;51.488;6.668;2023-09-18T07:32:44;3.22;;;2.83;;
22070;SDS011;11200;51.488;6.668;2023-09-18T07:35:10;3.92;;;2.95;;
22070;SDS011;11200;51.488;6.668;2023-09-18T07:37:38;5.32;;;3.10;;
22070;SDS011;11200;51.488;6.668;2023-09-18T07:40:05;3.83;;;2.53;;
22070;SDS011;11200;51.488;6.668;2023-09-18T07:42:31;5.00;;;2.70;;
22070;SDS011;11200;51.488;6.668;2023-09-18T07:44:57;3.13;;;2.60;;
22070;SDS011;11200;51.488;6.668;2023-09-18T07:47:23;3.67;;;2.88;;
22070;SDS011;11200;51.488;6.668;2023-09-18T07:49:48;4.07;;;2.47;;
22070;SDS011;11200;51.488;6.668;2023-09-18T07:52:15;3.65;;;2.47;;
22070;SDS011;11200;51.488;6.668;2023-09-18T07:54:41;3.42;;;2.53;;
22070;SDS011;11200;51.488;6.668;2023-09-18T07:57:08;6.13;;;2.60;;
22070;SDS011;11200;51.488;6.668;2023-09-18T07:59:34;4.43;;;2.30;;
22070;SDS011;11200;51.488;6.668;2023-09-18T08:02:04;3.22;;;2.03;;
22070;SDS011;11200;51.488;6.668;2023-09-18T08:04:33;3.38;;;2.30;;
22070;SDS011;11200;51.488;6.668;2023-09-18T08:06:59;4.30;;;2.35;;
22070;SDS011;11200;51.488;6.668;2023-09-18T08:09:25;3.28;;;2.15;;
22070;SDS011;11200;51.488;6.668;2023-09-18T08:11:51;3.88;;;2.40;;
22070;SDS011;11200;51.488;6.668;2023-09-18T08:14:20;2.50;;;2.08;;
22070;SDS011;11200;51.488;6.668;2023-09-18T08:16:47;5.00;;;1.92;;
22070;SDS011;11200;51.488;6.668;2023-09-18T08:19:16;3.28;;;2.28;;
22070;SDS011;11200;51.488;6.668;2023-09-18T08:21:44;3.72;;;2.50;;
22070;SDS011;11200;51.488;6.668;2023-09-18T08:24:11;2.72;;;2.00;;
22070;SDS011;11200;51.488;6.668;2023-09-18T08:26:36;2.78;;;1.92;;
22070;SDS011;11200;51.488;6.668;2023-09-18T08:29:03;2.95;;;2.10;;
22070;SDS011;11200;51.488;6.668;2023-09-18T08:31:28;3.13;;;2.00;;
22070;SDS011;11200;51.488;6.668;2023-09-18T08:33:56;2.88;;;1.80;;
22070;SDS011;11200;51.488;6.668;2023-09-18T08:36:22;2.42;;;1.90;;
22070;SDS011;11200;51.488;6.668;2023-09-18T08:38:48;2.83;;;2.10;;
22070;SDS011;11200;51.488;6.668;2023-09-18T08:41:13;2.60;;;1.88;;
22070;SDS011;11200;51.488;6.668;2023-09-18T08:43:42;3.22;;;1.80;;
22070;SDS011;11200;51.488;6.668;2023-09-18T08:46:09;3.45;;;1.75;;
22070;SDS011;11200;51.488;6.668;2023-09-18T08:48:35;3.17;;;1.67;;
22070;SDS011;11200;51.488;6.668;2023-09-18T08:51:02;3.60;;;1.92;;
22070;SDS011;11200;51.488;6.668;2023-09-18T08:53:34;2.17;;;1.80;;
22070;SDS011;11200;51.488;6.668;2023-09-18T08:56:01;3.65;;;2.20;;
22070;SDS011;11200;51.488;6.668;2023-09-18T08:58:32;2.55;;;1.50;;
22070;SDS011;11200;51.488;6.668;2023-09-18T09:01:01;2.92;;;1.98;;
22070;SDS011;11200;51.488;6.668;2023-09-18T09:03:28;4.25;;;1.80;;
22070;SDS011;11200;51.488;6.668;2023-09-18T09:05:55;2.47;;;1.88;;
22070;SDS011;11200;51.488;6.668;2023-09-18T09:08:21;3.47;;;1.90;;
22070;SDS011;11200;51.488;6.668;2023-09-18T09:10:48;3.38;;;1.75;;
22070;SDS011;11200;51.488;6.668;2023-09-18T09:13:15;3.60;;;1.90;;
22070;SDS011;11200;51.488;6.668;2023-09-18T09:15:44;2.65;;;1.60;;
22070;SDS011;11200;51.488;6.668;2023-09-18T09:18:11;2.75;;;1.90;;
22070;SDS011;11200;51.488;6.668;2023-09-18T09:20:37;2.80;;;1.70;;
22070;SDS011;11200;51.488;6.668;2023-09-18T09:23:06;2.38;;;1.58;;
22070;SDS011;11200;51.488;6.668;2023-09-18T09:25:33;4.05;;;1.60;;
22070;SDS011;11200;51.488;6.668;2023-09-18T09:27:59;3.17;;;1.92;;
22070;SDS011;11200;51.488;6.668;2023-09-18T09:30:28;1.80;;;1.60;;
22070;SDS011;11200;51.488;6.668;2023-09-18T09:32:55;3.47;;;1.58;;
22070;SDS011;11200;51.488;6.668;2023-09-18T09:35:27;2.05;;;1.70;;
22070;SDS011;11200;51.488;6.668;2023-09-18T09:38:15;2.70;;;1.52;;
22070;SDS011;11200;51.488;6.668;2023-09-18T09:40:45;3.70;;;1.85;;
22070;SDS011;11200;51.488;6.668;2023-09-18T09:43:11;3.38;;;1.40;;
22070;SDS011;11200;51.488;6.668;2023-09-18T09:45:41;3.10;;;1.70;;
22070;SDS011;11200;51.488;6.668;2023-09-18T09:48:07;2.42;;;1.73;;
22070;SDS011;11200;51.488;6.668;2023-09-18T09:50:43;2.35;;;1.50;;
22070;SDS011;11200;51.488;6.668;2023-09-18T09:53:11;3.15;;;1.60;;
22070;SDS011;11200;51.488;6.668;2023-09-18T09:55:38;4.10;;;1.70;;
22070;SDS011;11200;51.488;6.668;2023-09-18T09:58:04;2.17;;;1.70;;
22070;SDS011;11200;51.488;6.668;2023-09-18T10:00:32;2.42;;;1.70;;
22070;SDS011;11200;51.488;6.668;2023-09-18T10:03:08;3.72;;;1.42;;
22070;SDS011;11200;51.488;6.668;2023-09-18T10:05:38;2.25;;;1.50;;
22070;SDS011;11200;51.488;6.668;2023-09-18T10:10:38;1.77;;;1.48;;
22070;SDS011;11200;51.488;6.668;2023-09-18T10:13:20;4.03;;;1.67;;
22070;SDS011;11200;51.488;6.668;2023-09-18T10:15:52;2.80;;;1.90;;
22070;SDS011;11200;51.488;6.668;2023-09-18T10:18:28;2.65;;;1.65;;
22070;SDS011;11200;51.488;6.668;2023-09-18T10:26:44;1.77;;;1.65;;
22070;SDS011;11200;51.488;6.668;2023-09-18T10:29:19;2.67;;;1.70;;
22070;SDS011;11200;51.488;6.668;2023-09-18T10:31:45;2.30;;;1.60;;
22070;SDS011;11200;51.488;6.668;2023-09-18T10:34:13;2.95;;;1.73;;
22070;SDS011;11200;51.488;6.668;2023-09-18T10:36:41;2.17;;;1.45;;
22070;SDS011;11200;51.488;6.668;2023-09-18T10:39:11;1.50;;;1.40;;
22070;SDS011;11200;51.488;6.668;2023-09-18T10:41:38;4.03;;;2.05;;
22070;SDS011;11200;51.488;6.668;2023-09-18T10:44:04;1.92;;;1.73;;
22070;SDS011;11200;51.488;6.668;2023-09-18T10:46:30;3.05;;;1.50;;
22070;SDS011;11200;51.488;6.668;2023-09-18T10:48:57;2.22;;;1.90;;
22070;SDS011;11200;51.488;6.668;2023-09-18T10:51:24;2.53;;;1.60;;
22070;SDS011;11200;51.488;6.668;2023-09-18T10:53:50;4.00;;;1.77;;
22070;SDS011;11200;51.488;6.668;2023-09-18T10:56:19;2.13;;;1.70;;
22070;SDS011;11200;51.488;6.668;2023-09-18T10:58:45;3.08;;;1.80;;
22070;SDS011;11200;51.488;6.668;2023-09-18T11:01:14;5.88;;;1.88;;
22070;SDS011;11200;51.488;6.668;2023-09-18T11:03:39;2.60;;;1.80;;
22070;SDS011;11200;51.488;6.668;2023-09-18T11:06:07;2.70;;;1.70;;
22070;SDS011;11200;51.488;6.668;2023-09-18T11:08:45;3.72;;;1.90;;
22070;SDS011;11200;51.488;6.668;2023-09-18T11:11:12;3.92;;;2.00;;
22070;SDS011;11200;51.488;6.668;2023-09-18T11:13:45;4.60;;;2.00;;
22070;SDS011;11200;51.488;6.668;2023-09-18T11:21:30;4.40;;;1.77;;
22070;SDS011;11200;51.488;6.668;2023-09-18T11:24:07;3.40;;;1.85;;
22070;SDS011;11200;51.488;6.668;2023-09-18T11:26:41;3.55;;;1.80;;
22070;SDS011;11200;51.488;6.668;2023-09-18T11:29:08;3.60;;;1.85;;
22070;SDS011;11200;51.488;6.668;2023-09-18T11:31:46;2.65;;;1.80;;
22070;SDS011;11200;51.488;6.668;2023-09-18T11:34:25;2.83;;;1.80;;
22070;SDS011;11200;51.488;6.668;2023-09-18T11:36:53;2.83;;;1.90;;
22070;SDS011;11200;51.488;6.668;2023-09-18T11:39:34;2.83;;;1.95;;
22070;SDS011;11200;51.488;6.668;2023-09-18T11:42:17;4.15;;;2.20;;
22070;SDS011;11200;51.488;6.668;2023-09-18T11:44:44;3.05;;;1.80;;
22070;SDS011;11200;51.488;6.668;2023-09-18T11:47:16;4.32;;;2.00;;
22070;SDS011;11200;51.488;6.668;2023-09-18T11:49:51;2.35;;;1.70;;
22070;SDS011;11200;51.488;6.668;2023-09-18T11:52:19;2.33;;;1.85;;
22070;SDS011;11200;51.488;6.668;2023-09-18T11:54:47;3.35;;;2.03;;
22070;SDS011;11200;51.488;6.668;2023-09-18T11:57:13;2.33;;;1.83;;
22070;SDS011;11200;51.488;6.668;2023-09-18T11:59:42;2.75;;;1.85;;
22070;SDS011;11200;51.488;6.668;2023-09-18T12:02:12;2.88;;;1.98;;
22070;SDS011;11200;51.488;6.668;2023-09-18T12:04:53;2.58;;;1.70;;
22070;SDS011;11200;51.488;6.668;2023-09-18T12:07:19;3.00;;;1.92;;
22070;SDS011;11200;51.488;6.668;2023-09-18T12:09:44;2.63;;;1.80;;
22070;SDS011;11200;51.488;6.668;2023-09-18T12:12:10;3.60;;;1.95;;
22070;SDS011;11200;51.488;6.668;2023-09-18T12:14:39;4.40;;;2.00;;
22070;SDS011;11200;51.488;6.668;2023-09-18T12:17:07;2.60;;;1.75;;
22070;SDS011;11200;51.488;6.668;2023-09-18T12:19:33;3.53;;;2.00;;
22070;SDS011;11200;51.488;6.668;2023-09-18T12:22:00;4.78;;;1.75;;
22070;SDS011;11200;51.488;6.668;2023-09-18T12:24:26;3.58;;;1.80;;
22070;SDS011;11200;51.488;6.668;2023-09-18T12:26:52;3.15;;;1.90;;
22070;SDS011;11200;51.488;6.668;2023-09-18T12:29:22;3.22;;;1.80;;
22070;SDS011;11200;51.488;6.668;2023-09-18T12:31:48;3.20;;;1.75;;
22070;SDS011;11200;51.488;6.668;2023-09-18T12:34:18;2.50;;;1.85;;
22070;SDS011;11200;51.488;6.668;2023-09-18T12:36:48;2.13;;;1.60;;
22070;SDS011;11200;51.488;6.668;2023-09-18T12:39:15;2.63;;;1.98;;
22070;SDS011;11200;51.488;6.668;2023-09-18T12:41:45;3.97;;;1.92;;
22070;SDS011;11200;51.488;6.668;2023-09-18T12:44:12;2.92;;;1.75;;
22070;SDS011;11200;51.488;6.668;2023-09-18T12:46:41;2.20;;;1.92;;
22070;SDS011;11200;51.488;6.668;2023-09-18T12:49:20;2.17;;;1.60;;
22070;SDS011;11200;51.488;6.668;2023-09-18T12:52:00;3.38;;;1.80;;
22070;SDS011;11200;51.488;6.668;2023-09-18T12:54:45;1.77;;;1.50;;
22070;SDS011;11200;51.488;6.668;2023-09-18T12:57:17;3.08;;;1.73;;
22070;SDS011;11200;51.488;6.668;2023-09-18T12:59:43;3.03;;;1.77;;
22070;SDS011;11200;51.488;6.668;2023-09-18T13:02:09;3.60;;;1.90;;
22070;SDS011;11200;51.488;6.668;2023-09-18T13:04:38;2.38;;;1.70;;
22070;SDS011;11200;51.488;6.668;2023-09-18T13:07:10;2.80;;;1.80;;
22070;SDS011;11200;51.488;6.668;2023-09-18T13:10:03;3.60;;;1.75;;
22070;SDS011;11200;51.488;6.668;2023-09-18T13:12:48;3.83;;;1.90;;
22070;SDS011;11200;51.488;6.668;2023-09-18T13:18:09;2.22;;;1.70;;
22070;SDS011;11200;51.488;6.668;2023-09-18T13:20:36;3.65;;;1.80;;
22070;SDS011;11200;51.488;6.668;2023-09-18T13:23:02;1.73;;;1.60;;
22070;SDS011;11200;51.488;6.668;2023-09-18T13:25:31;2.40;;;1.73;;
22070;SDS011;11200;51.488;6.668;2023-09-18T13:28:00;2.63;;;1.90;;
22070;SDS011;11200;51.488;6.668;2023-09-18T13:30:28;2.83;;;1.88;;
22070;SDS011;11200;51.488;6.668;2023-09-18T13:33:03;2.70;;;1.83;;
22070;SDS011;11200;51.488;6.668;2023-09-18T13:35:40;2.33;;;1.77;;
22070;SDS011;11200;51.488;6.668;2023-09-18T13:38:09;3.50;;;1.80;;
22070;SDS011;11200;51.488;6.668;2023-09-18T13:40:43;1.50;;;1.40;;
22070;SDS011;11200;51.488;6.668;2023-09-18T13:43:17;2.30;;;1.52;;
22070;SDS011;11200;51.488;6.668;2023-09-18T13:45:48;4.13;;;2.00;;
22070;SDS011;11200;51.488;6.668;2023-09-18T13:48:20;2.08;;;1.88;;
22070;SDS011;11200;51.488;6.668;2023-09-18T13:50:49;2.13;;;1.92;;
22070;SDS011;11200;51.488;6.668;2023-09-18T13:53:16;2.22;;;1.67;;
22070;SDS011;11200;51.488;6.668;2023-09-18T13:55:42;2.38;;;1.80;;
22070;SDS011;11200;51.488;6.668;2023-09-18T13:58:07;2.65;;;2.03;;
22070;SDS011;11200;51.488;6.668;2023-09-18T14:00:34;1.90;;;1.70;;
22070;SDS011;11200;51.488;6.668;2023-09-18T14:03:00;2.67;;;1.80;;
22070;SDS011;11200;51.488;6.668;2023-09-18T14:05:28;2.90;;;1.83;;
22070;SDS011;11200;51.488;6.668;2023-09-18T14:07:55;2.97;;;1.75;;
22070;SDS011;11200;51.488;6.668;2023-09-18T14:10:25;3.95;;;1.80;;
22070;SDS011;11200;51.488;6.668;2023-09-18T14:12:52;2.90;;;1.70;;
22070;SDS011;11200;51.488;6.668;2023-09-18T14:15:17;2.22;;;1.77;;
22070;SDS011;11200;51.488;6.668;2023-09-18T14:17:43;2.90;;;1.92;;
22070;SDS011;11200;51.488;6.668;2023-09-18T14:20:12;2.22;;;1.70;;
22070;SDS011;11200;51.488;6.668;2023-09-18T14:22:38;2.90;;;1.70;;
22070;SDS011;11200;51.488;6.668;2023-09-18T14:25:03;3.00;;;1.67;;
22070;SDS011;11200;51.488;6.668;2023-09-18T14:27:33;2.35;;;1.70;;
22070;SDS011;11200;51.488;6.668;2023-09-18T14:30:00;2.70;;;1.98;;
22070;SDS011;11200;51.488;6.668;2023-09-18T14:32:30;1.83;;;1.45;;
22070;SDS011;11200;51.488;6.668;2023-09-18T14:34:56;3.33;;;1.88;;
22070;SDS011;11200;51.488;6.668;2023-09-18T14:37:26;2.33;;;1.67;;
22070;SDS011;11200;51.488;6.668;2023-09-18T14:39:51;2.90;;;1.73;;
22070;SDS011;11200;51.488;6.668;2023-09-18T14:42:17;2.92;;;2.00;;
22070;SDS011;11200;51.488;6.668;2023-09-18T14:44:43;2.45;;;1.65;;
22070;SDS011;11200;51.488;6.668;2023-09-18T14:47:10;2.15;;;1.60;;
22070;SDS011;11200;51.488;6.668;2023-09-18T14:49:36;1.88;;;1.65;;
22070;SDS011;11200;51.488;6.668;2023-09-18T14:52:03;3.10;;;2.10;;
22070;SDS011;11200;51.488;6.668;2023-09-18T14:54:29;3.45;;;2.10;;
22070;SDS011;11200;51.488;6.668;2023-09-18T14:56:55;3.17;;;1.70;;
22070;SDS011;11200;51.488;6.668;2023-09-18T14:59:21;3.30;;;1.80;;
22070;SDS011;11200;51.488;6.668;2023-09-18T15:01:47;2.55;;;1.50;;
22070;SDS011;11200;51.488;6.668;2023-09-18T15:04:14;4.32;;;2.03;;
22070;SDS011;11200;51.488;6.668;2023-09-18T15:06:39;1.90;;;1.67;;
22070;SDS011;11200;51.488;6.668;2023-09-18T15:09:05;2.28;;;1.75;;
22070;SDS011;11200;51.488;6.668;2023-09-18T15:11:32;3.25;;;2.10;;
22070;SDS011;11200;51.488;6.668;2023-09-18T15:13:59;2.20;;;1.60;;
22070;SDS011;11200;51.488;6.668;2023-09-18T15:16:26;1.63;;;1.52;;